createdAt,value
2022-08-09T00:01:53.001Z,969.2
2022-08-09T00:06:47.597Z,969.2
2022-08-09T00:11:58.392Z,969.21
2022-08-09T00:16:51.011Z,969.22
2022-08-09T00:21:56.441Z,969.19
2022-08-09T00:26:54.953Z,969.21
2022-08-09T00:31:58.103Z,969.21
2022-08-09T00:36:58.346Z,969.22
2022-08-09T00:44:09.112Z,969.23
2022-08-09T00:47:01.868Z,969.19
2022-08-09T00:52:05.459Z,969.23
2022-08-09T00:57:09.063Z,969.26
2022-08-09T01:02:06.616Z,969.26
2022-08-09T01:07:08.063Z,969.29
2022-08-09T01:12:09.477Z,969.33
2022-08-09T01:17:11.292Z,969.33
2022-08-09T01:22:16.353Z,969.31
2022-08-09T01:27:14.155Z,969.3
2022-08-09T01:32:30.555Z,969.36
2022-08-09T01:37:17.300Z,969.29
2022-08-09T01:42:19.225Z,969.33
2022-08-09T01:47:20.387Z,969.36
2022-08-09T01:52:21.747Z,969.41
2022-08-09T01:57:23.816Z,969.41
2022-08-09T02:02:30.008Z,969.41
2022-08-09T02:08:36.237Z,969.42
2022-08-09T02:12:32.470Z,969.36
2022-08-09T02:18:00.371Z,969.47
2022-08-09T02:22:35.000Z,969.46
2022-08-09T02:27:43.423Z,969.49
2022-08-09T02:32:36.436Z,969.54
2022-08-09T02:37:38.401Z,969.54
2022-08-09T02:42:40.397Z,969.48
2022-08-09T02:47:46.601Z,969.53
2022-08-09T02:52:43.133Z,969.43
2022-08-09T02:57:59.922Z,969.37
2022-08-09T03:02:58.846Z,969.41
2022-08-09T03:07:54.883Z,969.41
2022-08-09T03:12:51.993Z,969.41
2022-08-09T03:17:53.965Z,969.4
2022-08-09T03:22:56.844Z,969.38
2022-08-09T03:27:55.171Z,969.33
2022-08-09T03:32:56.202Z,969.33
2022-08-09T03:37:58.462Z,969.41
2022-08-09T03:42:59.819Z,969.47
2022-08-09T03:48:01.601Z,969.51
2022-08-09T03:53:03.394Z,969.52
2022-08-09T03:58:09.995Z,969.59
2022-08-09T04:03:06.733Z,969.68
2022-08-09T04:08:08.110Z,969.74
2022-08-09T04:13:11.388Z,969.78
2022-08-09T04:18:16.372Z,969.78
2022-08-09T04:23:16.976Z,969.79
2022-08-09T04:28:14.806Z,969.86
2022-08-09T04:33:16.870Z,969.96
2022-08-09T04:38:18.586Z,969.94
2022-08-09T04:43:20.525Z,969.93
2022-08-09T04:48:21.894Z,969.88
2022-08-09T04:53:23.916Z,969.92
2022-08-09T04:58:25.926Z,970.06
2022-08-09T05:03:30.857Z,970.07
2022-08-09T05:08:30.057Z,970.02
2022-08-09T05:13:33.047Z,970.03
2022-08-09T05:18:37.207Z,970.08
2022-08-09T05:23:51.398Z,970.09
2022-08-09T05:28:38.049Z,970.11
2022-08-09T05:53:51.803Z,970.2
2022-08-09T06:03:54.578Z,970.24
2022-08-09T06:08:52.604Z,970.21
2022-08-09T06:13:52.699Z,970.24
2022-08-09T06:23:58.356Z,970.3
2022-08-09T06:33:59.292Z,970.3
2022-08-09T06:44:02.655Z,970.32
2022-08-09T06:49:03.923Z,970.26
2022-08-09T06:54:05.842Z,970.27
2022-08-09T07:00:47.841Z,970.22
2022-08-09T07:04:08.139Z,970.28
2022-08-09T07:09:53.807Z,970.34
2022-08-09T07:14:11.778Z,970.36
2022-08-09T07:19:15.299Z,970.38
2022-08-09T07:24:15.697Z,970.46
2022-08-09T07:29:17.381Z,970.46
2022-08-09T07:34:20.273Z,970.52
2022-08-09T07:39:40.612Z,970.44
2022-08-09T07:44:24.089Z,970.47
2022-08-09T07:49:24.937Z,970.51
2022-08-09T07:54:28.350Z,970.56
2022-08-09T07:59:35.006Z,970.52
2022-08-09T08:04:31.984Z,970.59
2022-08-09T08:09:35.382Z,970.57
2022-08-09T08:14:33.218Z,970.58
2022-08-09T08:19:34.819Z,970.61
2022-08-09T08:24:40.375Z,970.62
2022-08-09T08:29:39.119Z,970.61
2022-08-09T08:34:41.369Z,970.55
2022-08-09T08:39:43.802Z,970.58
2022-08-09T08:44:43.981Z,970.58
2022-08-09T08:49:47.577Z,970.65
2022-08-09T08:54:47.334Z,970.61
2022-08-09T08:59:49.525Z,970.64
2022-08-09T09:04:52.945Z,970.66
2022-08-09T09:09:58.826Z,970.56
2022-08-09T09:14:54.705Z,970.54
2022-08-09T09:19:56.034Z,970.48
2022-08-09T09:26:02.814Z,970.51
2022-08-09T09:30:09.434Z,970.49
2022-08-09T09:35:01.747Z,970.44
2022-08-09T09:40:03.409Z,970.48
2022-08-09T09:45:04.613Z,970.46
2022-08-09T09:50:14.036Z,970.49
2022-08-09T09:55:16.855Z,970.55
2022-08-09T10:00:09.784Z,970.57
2022-08-09T10:05:11.877Z,970.55
2022-08-09T10:10:13.930Z,970.51
2022-08-09T10:15:17.349Z,970.5
2022-08-09T10:20:17.515Z,970.41
2022-08-09T10:25:20.943Z,970.48
2022-08-09T10:35:28.493Z,970.4
2022-08-09T10:40:33.555Z,970.34
2022-08-09T10:45:32.095Z,970.36
2022-08-09T10:50:33.527Z,970.29
2022-08-09T10:55:49.416Z,970.26
2022-08-09T11:00:37.559Z,970.27
2022-08-09T11:05:38.841Z,970.24
2022-08-09T11:10:40.797Z,970.19
2022-08-09T11:15:51.135Z,970.24
2022-08-09T11:20:44.314Z,970.15
2022-08-09T11:25:48.022Z,970.21
2022-08-09T11:30:48.354Z,970.17
2022-08-09T11:35:51.742Z,970.23
2022-08-09T11:40:52.915Z,970.16
2022-08-09T11:45:52.975Z,970.18
2022-08-09T11:51:19.294Z,970.16
2022-08-09T11:56:02.071Z,970.17
2022-08-09T12:00:57.588Z,970.11
2022-08-09T12:05:59.186Z,970.08
2022-08-09T12:11:00.752Z,970.08
2022-08-09T12:16:02.316Z,969.93
2022-08-09T12:21:03.673Z,969.94
2022-08-09T12:26:05.772Z,969.93
2022-08-09T12:31:10.646Z,969.96
2022-08-09T12:36:27.376Z,969.92
2022-08-09T12:41:11.570Z,969.92
2022-08-09T12:46:13.134Z,969.89
2022-08-09T12:51:14.556Z,969.9
2022-08-09T12:56:29.729Z,969.79
2022-08-09T13:01:17.785Z,969.83
2022-08-09T13:06:21.606Z,969.79
2022-08-09T13:11:23.483Z,969.77
2022-08-09T13:16:22.214Z,969.78
2022-08-09T13:22:34.621Z,969.73
2022-08-09T13:26:31.786Z,969.69
2022-08-09T13:32:18.391Z,969.7
2022-08-09T13:36:40.077Z,969.62
2022-08-09T13:41:56.812Z,969.67
2022-08-09T13:46:44.989Z,969.58
2022-08-09T13:51:34.359Z,969.56
2022-08-09T13:56:35.726Z,969.55
2022-08-09T14:01:56.778Z,969.59
2022-08-09T14:06:43.739Z,969.61
2022-08-09T14:11:41.181Z,969.68
2022-08-09T14:16:43.012Z,969.52
2022-08-09T14:21:44.546Z,969.52
2022-08-09T14:26:45.903Z,969.48
2022-08-09T14:31:50.436Z,969.46
2022-08-09T14:36:48.656Z,969.53
2022-08-09T14:41:49.995Z,969.56
2022-08-09T14:47:01.284Z,969.59
2022-08-09T14:51:53.239Z,969.58
2022-08-09T14:56:58.348Z,969.51
2022-08-09T15:01:56.498Z,969.49
2022-08-09T15:06:57.740Z,969.46
2022-08-09T15:11:59.183Z,969.41
2022-08-09T15:17:00.857Z,969.43
2022-08-09T15:22:02.986Z,969.42
2022-08-09T15:27:05.049Z,969.32
2022-08-09T15:32:28.337Z,969.29
2022-08-09T15:37:08.424Z,969.28
2022-08-09T15:42:09.895Z,969.27
2022-08-09T15:47:13.882Z,969.22
2022-08-09T15:52:13.495Z,969.29
2022-08-09T15:57:15.497Z,969.22
2022-08-09T16:02:17.655Z,969.28
2022-08-09T16:07:18.954Z,969.19
2022-08-09T16:12:20.193Z,969.22
2022-08-09T16:17:22.147Z,969.19
2022-08-09T16:22:23.886Z,969.21
2022-08-09T16:27:25.561Z,969.15
2022-08-09T16:32:33.825Z,969.15
2022-08-09T16:37:54.357Z,969.24
2022-08-09T16:42:30.848Z,969.26
2022-08-09T16:48:37.719Z,969.2
2022-08-09T16:52:34.097Z,969.18
2022-08-09T16:57:40.533Z,969.24
2022-08-09T17:02:37.428Z,969.18
2022-08-09T17:08:42.320Z,969.25
2022-08-09T17:12:39.657Z,969.29
2022-08-09T17:17:50.196Z,969.3
2022-08-09T17:22:49.667Z,969.31
2022-08-09T17:27:48.997Z,969.37
2022-08-09T17:32:46.396Z,969.38
2022-08-09T17:38:03.111Z,969.42
2022-08-09T17:42:50.007Z,969.4
2022-08-09T17:47:54.784Z,969.41
2022-08-09T17:52:53.568Z,969.44
2022-08-09T17:58:02.146Z,969.51
2022-08-09T18:02:58.004Z,969.48
2022-08-09T18:07:58.302Z,969.59
2022-08-09T18:13:40.310Z,969.59
2022-08-09T18:18:04.084Z,969.63
2022-08-09T18:23:05.445Z,969.64
2022-08-09T18:28:07.674Z,969.64
2022-08-09T18:33:12.887Z,969.68
2022-08-09T18:38:08.083Z,969.68
2022-08-09T18:43:09.591Z,969.75
2022-08-09T18:48:11.352Z,969.77
2022-08-09T18:53:13.683Z,969.8
2022-08-09T18:58:19.885Z,969.87
2022-08-09T19:03:16.762Z,969.95
2022-08-09T19:08:19.834Z,970
2022-08-09T19:13:23.740Z,970.09
2022-08-09T19:18:32.770Z,970.08
2022-08-09T19:24:31.321Z,970.13
2022-08-09T19:28:28.570Z,970.18
2022-08-09T19:33:27.383Z,970.21
2022-08-09T19:38:29.029Z,970.18
2022-08-09T19:43:58.525Z,970.2
2022-08-09T19:49:01.160Z,970.24
2022-08-09T19:53:37.305Z,970.28
2022-08-09T19:58:36.482Z,970.35
2022-08-09T20:39:19.048Z,970.52
2022-08-09T20:43:58.262Z,970.63
2022-08-09T20:58:58.369Z,970.64
2022-08-09T21:04:07.819Z,970.69
2022-08-09T21:20:04.911Z,970.59
2022-08-09T21:29:11.591Z,970.64
2022-08-09T21:34:09.466Z,970.58
2022-08-09T21:39:10.980Z,970.64
2022-08-09T21:44:12.406Z,970.6
2022-08-09T21:49:14.104Z,970.58
2022-08-09T21:54:15.307Z,970.56
2022-08-09T21:59:16.638Z,970.56
2022-08-09T22:14:21.241Z,970.56
2022-08-09T22:19:23.760Z,970.59
2022-08-09T22:24:24.975Z,970.56
2022-08-09T22:29:32.318Z,970.5
2022-08-09T22:34:27.317Z,970.42
2022-08-09T22:39:47.441Z,970.43
2022-08-09T22:44:32.770Z,970.31
2022-08-09T22:49:32.306Z,970.33
2022-08-09T22:54:34.169Z,970.27
2022-08-09T22:59:56.467Z,970.25
2022-08-09T23:04:38.227Z,970.25
2022-08-09T23:09:39.778Z,970.2
2022-08-09T23:14:42.460Z,970.17
2022-08-09T23:20:00.516Z,970.14
2022-08-09T23:24:48.578Z,970.21
2022-08-09T23:29:47.429Z,970.26
2022-08-09T23:34:49.326Z,970.25
2022-08-09T23:39:50.790Z,970.21
2022-08-09T23:44:52.301Z,970.25
2022-08-09T23:49:53.618Z,970.23
2022-08-09T23:54:54.964Z,970.25
2022-08-09T23:59:57.142Z,970.22
